createdAt,value
2022-12-11T00:01:38.859Z,18.63
2022-12-11T00:04:05.542Z,19.63
2022-12-11T00:06:32.167Z,19.51
2022-12-11T00:08:58.900Z,19.43
2022-12-11T00:11:25.568Z,19.15
2022-12-11T00:13:52.262Z,19.87
2022-12-11T00:16:23.817Z,19.94
2022-12-11T00:18:53.308Z,19.60
2022-12-11T00:21:19.988Z,20.22
2022-12-11T00:23:46.685Z,19.28
2022-12-11T00:26:15.119Z,18.38
2022-12-11T00:28:43.807Z,19.83
2022-12-11T00:31:15.803Z,19.14
2022-12-11T00:33:45.083Z,18.20
2022-12-11T00:36:14.210Z,18.90
2022-12-11T00:38:41.264Z,18.27
2022-12-11T00:41:07.958Z,17.48
2022-12-11T00:43:34.743Z,16.87
2022-12-11T00:46:01.561Z,16.61
2022-12-11T00:48:28.208Z,15.80
2022-12-11T00:50:54.994Z,14.72
2022-12-11T00:53:21.641Z,14.50
2022-12-11T00:55:48.340Z,14.37
2022-12-11T00:58:16.043Z,14.57
2022-12-11T01:00:43.156Z,15.57
2022-12-11T01:03:13.012Z,15.88
2022-12-11T01:05:39.793Z,16.30
2022-12-11T01:08:06.908Z,15.72
2022-12-11T01:10:33.995Z,15.84
2022-12-11T01:13:04.943Z,16.07
2022-12-11T01:15:41.353Z,15.98
2022-12-11T01:18:10.982Z,16.51
2022-12-11T01:20:40.318Z,15.81
2022-12-11T01:23:07.285Z,16.42
2022-12-11T01:25:36.658Z,15.94
2022-12-11T01:28:03.881Z,17.25
2022-12-11T01:30:30.653Z,16.77
2022-12-11T01:32:57.425Z,16.77
2022-12-11T01:35:27.516Z,17.07
2022-12-11T01:37:54.313Z,16.63
2022-12-11T01:40:22.729Z,17.02
2022-12-11T01:42:49.915Z,16.49
2022-12-11T01:45:29.704Z,16.72
2022-12-11T01:48:12.480Z,17.44
2022-12-11T01:50:49.153Z,16.63
2022-12-11T01:53:21.288Z,17.26
2022-12-11T01:55:53.254Z,17.81
2022-12-11T01:58:23.834Z,17.14
2022-12-11T02:00:52.929Z,17.12
2022-12-11T02:03:20.253Z,17.12
2022-12-11T02:05:47.075Z,17.56
2022-12-11T02:08:14.710Z,16.78
2022-12-11T02:10:58.151Z,17.44
2022-12-11T02:13:56.071Z,17.59
2022-12-11T02:16:37.746Z,17.29
2022-12-11T02:19:16.809Z,17.26
2022-12-11T02:21:53.127Z,16.86
2022-12-11T02:24:32.936Z,17.20
2022-12-11T02:27:31.923Z,17.48
2022-12-11T02:30:08.247Z,17.24
2022-12-11T02:32:59.429Z,17.71
2022-12-11T02:35:33.487Z,18.62
2022-12-11T02:38:12.918Z,18.04
2022-12-11T02:40:42.736Z,19.42
2022-12-11T02:43:12.980Z,18.53
2022-12-11T02:45:42.433Z,19.17
2022-12-11T02:48:12.847Z,18.81
2022-12-11T02:50:46.227Z,18.81
2022-12-11T02:53:18.497Z,18.86
2022-12-11T02:55:45.743Z,19.09
2022-12-11T02:58:22.085Z,18.24
2022-12-11T03:00:49.039Z,18.96
2022-12-11T03:03:15.945Z,19.49
2022-12-11T03:05:43.303Z,19.23
2022-12-11T03:08:10.354Z,18.57
2022-12-11T03:10:37.092Z,18.45
2022-12-11T03:13:05.144Z,19.09
2022-12-11T03:15:58.617Z,18.58
2022-12-11T03:18:30.543Z,18.83
2022-12-11T03:21:05.072Z,19.01
2022-12-11T03:23:44.072Z,19.60
2022-12-11T03:26:15.505Z,19.84
2022-12-11T03:28:54.915Z,19.86
2022-12-11T03:31:31.556Z,19.91
2022-12-11T03:34:04.585Z,20.46
2022-12-11T03:36:36.503Z,20.23
2022-12-11T03:39:13.400Z,21.34
2022-12-11T03:41:43.919Z,21.11
2022-12-11T03:44:12.669Z,21.52
2022-12-11T03:46:43.400Z,21.23
2022-12-11T03:49:24.013Z,21.28
2022-12-11T03:51:54.326Z,20.52
2022-12-11T03:54:22.905Z,20.56
2022-12-11T03:56:55.416Z,20.03
2022-12-11T03:59:22.103Z,20.04
2022-12-11T04:01:48.832Z,20.29
2022-12-11T04:04:19.542Z,20.88
2022-12-11T04:06:46.268Z,20.89
2022-12-11T04:09:12.994Z,20.26
2022-12-11T04:11:39.660Z,21.80
2022-12-11T04:14:26.967Z,21.12
2022-12-11T04:17:03.696Z,20.94
2022-12-11T04:19:44.115Z,20.78
2022-12-11T04:22:17.240Z,22.11
2022-12-11T04:24:43.864Z,20.36
2022-12-11T04:27:10.524Z,20.76
2022-12-11T04:29:37.166Z,19.48
2022-12-11T04:32:03.870Z,20.20
2022-12-11T04:34:30.594Z,19.65
2022-12-11T04:36:57.344Z,20.21
2022-12-11T04:39:26.336Z,18.81
2022-12-11T04:41:53.057Z,18.18
2022-12-11T04:44:19.672Z,18.68
2022-12-11T04:46:46.415Z,19.19
2022-12-11T04:49:13.080Z,17.97
2022-12-11T04:51:39.686Z,17.28
2022-12-11T04:54:06.374Z,17.00
2022-12-11T04:56:33.043Z,17.07
2022-12-11T04:58:59.640Z,17.18
2022-12-11T05:01:26.315Z,17.60
2022-12-11T05:03:53.033Z,17.70
2022-12-11T05:06:19.634Z,15.75
2022-12-11T05:08:46.278Z,15.77
2022-12-11T05:11:15.327Z,16.03
2022-12-11T05:13:43.326Z,16.29
2022-12-11T05:16:13.908Z,16.20
2022-12-11T05:18:40.594Z,15.41
2022-12-11T05:21:11.475Z,15.58
2022-12-11T05:23:39.258Z,15.49
2022-12-11T05:26:08.980Z,15.55
2022-12-11T05:28:37.447Z,15.75
2022-12-11T05:31:12.400Z,15.68
2022-12-11T05:33:39.612Z,16.32
2022-12-11T05:36:07.744Z,15.73
2022-12-11T05:38:34.746Z,16.71
2022-12-11T05:41:06.364Z,16.43
2022-12-11T05:43:35.968Z,16.37
2022-12-11T05:46:12.146Z,16.38
2022-12-11T05:48:39.775Z,17.17
2022-12-11T05:51:08.528Z,16.73
2022-12-11T05:53:39.303Z,16.81
2022-12-11T05:56:10.869Z,17.08
2022-12-11T05:58:39.379Z,17.22
2022-12-11T06:01:18.780Z,17.00
2022-12-11T06:03:45.778Z,17.84
2022-12-11T06:06:12.412Z,18.13
2022-12-11T06:08:39.433Z,19.11
2022-12-11T06:11:06.258Z,18.94
2022-12-11T06:13:33.800Z,19.15
2022-12-11T06:16:02.421Z,17.95
2022-12-11T06:18:29.396Z,18.53
2022-12-11T06:20:56.048Z,17.53
2022-12-11T06:23:23.107Z,16.78
2022-12-11T06:25:49.817Z,16.96
2022-12-11T06:28:16.556Z,16.34
2022-12-11T06:30:43.415Z,15.44
2022-12-11T06:33:10.163Z,15.59
2022-12-11T06:35:42.138Z,16.20
2022-12-11T06:38:09.985Z,15.99
2022-12-11T06:40:36.735Z,15.87
2022-12-11T06:43:03.566Z,15.93
2022-12-11T06:45:30.280Z,16.80
2022-12-11T06:47:56.970Z,18.01
2022-12-11T06:50:23.618Z,17.95
2022-12-11T06:52:50.383Z,17.02
2022-12-11T06:55:17.245Z,15.96
2022-12-11T06:57:43.876Z,15.93
2022-12-11T07:00:11.262Z,16.25
2022-12-11T07:02:37.919Z,16.60
2022-12-11T07:05:05.201Z,18.26
2022-12-11T07:07:31.841Z,18.20
2022-12-11T07:10:02.720Z,18.47
2022-12-11T07:12:34.216Z,18.39
2022-12-11T07:15:00.843Z,19.40
2022-12-11T07:17:29.483Z,20.10
2022-12-11T07:19:56.436Z,19.64
2022-12-11T07:22:23.283Z,20.49
2022-12-11T07:24:50.032Z,21.43
2022-12-11T07:27:16.705Z,20.59
2022-12-11T07:29:43.467Z,21.46
2022-12-11T07:32:10.232Z,20.79
2022-12-11T07:34:37.344Z,20.99
2022-12-11T07:37:05.277Z,21.00
2022-12-11T07:39:31.974Z,21.07
2022-12-11T07:41:58.684Z,20.29
2022-12-11T07:44:25.384Z,19.73
2022-12-11T07:46:52.052Z,18.92
2022-12-11T07:49:18.782Z,18.47
2022-12-11T07:51:46.789Z,17.53
2022-12-11T07:54:15.751Z,17.61
2022-12-11T07:56:52.792Z,16.84
2022-12-11T07:59:20.324Z,16.10
2022-12-11T08:01:47.077Z,16.31
2022-12-11T08:04:13.791Z,15.75
2022-12-11T08:06:42.562Z,15.43
2022-12-11T08:09:18.930Z,15.88
2022-12-11T08:11:51.949Z,14.92
2022-12-11T08:14:19.514Z,13.67
2022-12-11T08:16:47.116Z,13.20
2022-12-11T08:19:14.635Z,12.79
2022-12-11T08:21:41.440Z,11.29
2022-12-11T08:24:08.568Z,10.81
2022-12-11T08:26:35.551Z,10.30
2022-12-11T08:29:02.761Z,10.19
2022-12-11T08:31:29.983Z,9.67
2022-12-11T08:33:57.695Z,9.47
2022-12-11T08:36:25.450Z,9.81
2022-12-11T08:38:53.792Z,9.56
2022-12-11T08:41:24.460Z,9.29
2022-12-11T08:43:51.723Z,9.47
2022-12-11T08:46:18.633Z,9.68
2022-12-11T08:48:45.419Z,9.32
2022-12-11T08:51:16.862Z,9.62
2022-12-11T08:53:44.518Z,9.78
2022-12-11T08:56:14.787Z,10.23
2022-12-11T08:58:42.098Z,10.35
2022-12-11T09:01:11.809Z,10.98
2022-12-11T09:03:39.791Z,10.86
2022-12-11T09:06:12.282Z,11.81
2022-12-11T09:08:39.985Z,12.31
2022-12-11T09:11:10.093Z,12.35
2022-12-11T09:13:37.367Z,12.19
2022-12-11T09:16:06.953Z,11.94
2022-12-11T09:18:33.698Z,11.70
2022-12-11T09:21:09.743Z,11.44
2022-12-11T09:23:36.569Z,11.11
2022-12-11T09:26:08.490Z,11.22
2022-12-11T09:28:35.271Z,11.40
2022-12-11T09:31:01.966Z,11.39
2022-12-11T09:33:28.664Z,11.42
2022-12-11T09:36:02.800Z,11.90
2022-12-11T09:38:30.471Z,11.90
2022-12-11T09:40:57.459Z,11.90
2022-12-11T09:43:45.626Z,12.29
2022-12-11T09:46:14.586Z,12.62
2022-12-11T09:48:46.231Z,12.04
2022-12-11T09:51:41.852Z,12.26
2022-12-11T09:54:14.092Z,11.90
2022-12-11T09:57:07.891Z,13.01
2022-12-11T10:00:20.997Z,12.22
2022-12-11T10:03:37.067Z,11.91
2022-12-11T10:06:24.307Z,12.06
2022-12-11T10:09:08.797Z,11.37
2022-12-11T10:11:35.335Z,10.85
2022-12-11T10:14:39.635Z,10.96
2022-12-11T10:17:25.488Z,10.53
2022-12-11T10:19:53.371Z,10.55
2022-12-11T10:22:29.924Z,10.74
2022-12-11T10:25:15.531Z,9.75
2022-12-11T10:27:42.408Z,11.00
2022-12-11T10:30:14.982Z,11.15
2022-12-11T10:32:51.872Z,10.82
2022-12-11T10:35:36.587Z,11.48
2022-12-11T10:38:21.806Z,10.96
2022-12-11T10:40:58.435Z,9.81
2022-12-11T10:43:41.760Z,10.43
2022-12-11T10:46:18.027Z,9.67
2022-12-11T10:48:58.434Z,10.01
2022-12-11T10:51:31.122Z,9.72
2022-12-11T10:54:07.512Z,9.65
2022-12-11T10:56:37.896Z,9.38
2022-12-11T10:59:05.255Z,9.22
2022-12-11T11:01:33.009Z,9.03
2022-12-11T11:04:02.433Z,9.02
2022-12-11T11:06:29.296Z,9.17
2022-12-11T11:08:58.867Z,9.08
2022-12-11T11:11:25.429Z,10.52
2022-12-11T11:14:03.763Z,9.23
2022-12-11T11:16:31.181Z,9.65
2022-12-11T11:18:58.081Z,10.13
2022-12-11T11:21:27.111Z,10.51
2022-12-11T11:23:54.479Z,11.59
2022-12-11T11:26:22.746Z,14.01
2022-12-11T11:28:56.551Z,13.70
2022-12-11T11:31:34.213Z,13.40
2022-12-11T11:34:06.467Z,14.12
2022-12-11T11:36:35.627Z,14.08
2022-12-11T11:39:17.403Z,14.09
2022-12-11T11:42:01.659Z,14.50
2022-12-11T11:44:36.848Z,14.60
2022-12-11T11:47:15.909Z,14.66
2022-12-11T11:50:16.991Z,14.61
2022-12-11T11:52:58.790Z,14.25
2022-12-11T11:55:54.984Z,14.59
2022-12-11T11:58:31.363Z,14.03
2022-12-11T12:00:58.121Z,13.66
2022-12-11T12:03:25.918Z,14.47
2022-12-11T12:06:22.164Z,13.64
2022-12-11T12:09:26.441Z,12.91
2022-12-11T12:12:14.264Z,11.90
2022-12-11T12:14:55.322Z,11.99
2022-12-11T12:17:40.234Z,11.14
2022-12-11T12:20:31.251Z,11.95
2022-12-11T12:23:16.491Z,11.60
2022-12-11T12:26:05.791Z,12.04
2022-12-11T12:28:45.463Z,12.77
2022-12-11T12:31:20.995Z,13.00
2022-12-11T12:34:28.159Z,14.18
2022-12-11T12:36:54.700Z,12.03
2022-12-11T12:39:54.219Z,13.12
2022-12-11T12:42:47.147Z,12.67
2022-12-11T12:45:14.235Z,12.65
2022-12-11T12:47:51.992Z,12.73
2022-12-11T12:50:26.314Z,12.91
2022-12-11T12:52:55.263Z,12.44
2022-12-11T12:55:26.361Z,12.76
2022-12-11T12:58:05.531Z,13.24
2022-12-11T13:00:43.491Z,13.06
2022-12-11T13:03:18.667Z,13.56
2022-12-11T13:05:55.453Z,14.97
2022-12-11T13:08:34.794Z,14.01
2022-12-11T13:11:10.932Z,14.86
2022-12-11T13:13:39.275Z,15.00
2022-12-11T13:16:27.283Z,14.48
2022-12-11T13:18:54.621Z,14.76
2022-12-11T13:21:29.671Z,14.53
2022-12-11T13:24:16.968Z,14.57
2022-12-11T13:26:43.821Z,14.88
2022-12-11T13:29:30.172Z,14.72
2022-12-11T13:32:00.379Z,14.95
2022-12-11T13:34:33.098Z,15.67
2022-12-11T13:37:02.361Z,14.76
2022-12-11T13:39:39.427Z,14.94
2022-12-11T13:42:20.740Z,14.62
2022-12-11T13:44:49.273Z,14.91
2022-12-11T13:47:19.485Z,15.21
2022-12-11T13:49:53.158Z,14.86
2022-12-11T13:52:22.738Z,14.97
2022-12-11T13:54:52.491Z,14.61
2022-12-11T13:57:22.434Z,15.47
2022-12-11T13:59:52.258Z,15.16
2022-12-11T14:02:34.188Z,15.95
2022-12-11T14:05:07.420Z,15.75
2022-12-11T14:07:40.707Z,15.77
2022-12-11T14:10:24.458Z,14.94
2022-12-11T14:13:02.428Z,15.70
2022-12-11T14:15:32.234Z,16.13
2022-12-11T14:18:00.673Z,15.32
2022-12-11T14:20:31.782Z,16.23
2022-12-11T14:23:08.214Z,16.52
2022-12-11T14:25:34.987Z,16.61
2022-12-11T14:28:01.659Z,15.83
2022-12-11T14:30:32.780Z,18.13
2022-12-11T14:33:04.582Z,18.24
2022-12-11T14:35:38.627Z,18.58
2022-12-11T14:38:27.035Z,17.79
2022-12-11T14:41:05.328Z,18.61
2022-12-11T14:43:46.831Z,18.49
2022-12-11T14:46:25.238Z,19.71
2022-12-11T14:49:01.839Z,21.72
2022-12-11T14:51:38.713Z,23.37
2022-12-11T14:54:11.199Z,23.60
2022-12-11T14:56:56.775Z,20.38
2022-12-11T14:59:31.811Z,23.35
2022-12-11T15:02:21.260Z,22.49
2022-12-11T15:05:00.028Z,20.31
2022-12-11T15:07:26.656Z,21.34
2022-12-11T15:09:56.402Z,19.75
2022-12-11T15:12:23.947Z,18.63
2022-12-11T15:15:06.684Z,18.00
2022-12-11T15:17:35.747Z,18.57
2022-12-11T15:20:09.998Z,20.22
2022-12-11T15:22:38.020Z,19.01
2022-12-11T15:25:05.316Z,19.03
2022-12-11T15:27:36.901Z,22.09
2022-12-11T15:30:16.115Z,21.00
2022-12-11T15:32:42.898Z,20.06
2022-12-11T15:35:27.810Z,18.82
2022-12-11T15:37:56.451Z,19.12
2022-12-11T15:40:24.173Z,18.97
2022-12-11T15:42:52.159Z,18.59
2022-12-11T15:45:22.701Z,18.00
2022-12-11T15:47:50.742Z,18.48
2022-12-11T15:50:26.572Z,18.35
2022-12-11T15:52:56.010Z,17.48
2022-12-11T15:55:26.403Z,16.59
2022-12-11T15:57:55.985Z,17.08
2022-12-11T16:00:23.697Z,17.87
2022-12-11T16:02:50.790Z,17.48
2022-12-11T16:05:17.840Z,18.86
2022-12-11T16:07:45.392Z,18.69
2022-12-11T16:10:19.465Z,18.86
2022-12-11T16:12:46.278Z,18.47
2022-12-11T16:15:21.489Z,19.56
2022-12-11T16:17:50.060Z,20.89
2022-12-11T16:20:16.871Z,19.94
2022-12-11T16:22:43.617Z,18.86
2022-12-11T16:25:13.748Z,19.00
2022-12-11T16:27:40.971Z,20.98
2022-12-11T16:30:08.852Z,20.54
2022-12-11T16:32:38.647Z,20.26
2022-12-11T16:35:05.714Z,20.98
2022-12-11T16:37:39.528Z,19.83
2022-12-11T16:40:12.086Z,19.58
2022-12-11T16:42:38.869Z,20.43
2022-12-11T16:45:17.783Z,19.72
2022-12-11T16:47:44.722Z,23.75
2022-12-11T16:50:13.747Z,24.74
2022-12-11T16:52:40.541Z,21.84
2022-12-11T16:55:08.903Z,23.07
2022-12-11T16:57:36.232Z,22.14
2022-12-11T17:00:05.431Z,23.23
2022-12-11T17:02:32.661Z,23.07
2022-12-11T17:04:59.343Z,24.19
2022-12-11T17:07:26.309Z,24.97
2022-12-11T17:09:53.088Z,28.99
2022-12-11T17:12:19.939Z,28.59
2022-12-11T17:14:46.738Z,25.98
2022-12-11T17:17:13.356Z,25.74
2022-12-11T17:19:40.024Z,24.06
2022-12-11T17:22:06.922Z,24.55
2022-12-11T17:24:33.905Z,24.83
2022-12-11T17:27:00.783Z,24.82
2022-12-11T17:29:28.165Z,25.59
2022-12-11T17:31:54.858Z,27.89
2022-12-11T17:34:21.510Z,24.04
2022-12-11T17:36:48.240Z,22.85
2022-12-11T17:39:14.916Z,23.21
2022-12-11T17:41:41.576Z,23.13
2022-12-11T17:44:08.324Z,22.06
2022-12-11T17:46:35.093Z,22.73
2022-12-11T17:49:05.502Z,21.61
2022-12-11T17:51:37.475Z,20.49
2022-12-11T17:54:04.986Z,19.80
2022-12-11T17:56:31.688Z,19.62
2022-12-11T17:58:58.438Z,20.49
2022-12-11T18:01:25.226Z,19.03
2022-12-11T18:03:52.049Z,18.07
2022-12-11T18:06:19.931Z,18.42
2022-12-11T18:08:48.036Z,17.27
2022-12-11T18:11:19.915Z,17.07
2022-12-11T18:13:46.764Z,16.92
2022-12-11T18:16:18.736Z,16.80
2022-12-11T18:18:47.033Z,17.24
2022-12-11T18:21:16.242Z,17.67
2022-12-11T18:23:43.947Z,18.85
2022-12-11T18:26:10.736Z,19.14
2022-12-11T18:28:37.606Z,19.64
2022-12-11T18:31:04.659Z,20.83
2022-12-11T18:33:31.945Z,20.30
2022-12-11T18:35:58.723Z,21.05
2022-12-11T18:38:25.604Z,21.44
2022-12-11T18:40:52.313Z,22.03
2022-12-11T18:43:18.978Z,22.10
2022-12-11T18:45:45.827Z,22.55
2022-12-11T18:48:13.939Z,23.31
2022-12-11T18:50:52.121Z,22.51
2022-12-11T18:53:19.000Z,24.76
2022-12-11T18:55:48.622Z,23.85
2022-12-11T18:58:17.945Z,22.32
2022-12-11T19:00:45.561Z,22.80
2022-12-11T19:03:12.833Z,22.96
2022-12-11T19:05:41.033Z,23.66
2022-12-11T19:08:08.138Z,22.82
2022-12-11T19:10:41.444Z,23.76
2022-12-11T19:13:08.140Z,22.19
2022-12-11T19:15:38.725Z,22.53
2022-12-11T19:18:05.769Z,22.00
2022-12-11T19:20:57.665Z,21.64
2022-12-11T19:23:22.921Z,22.11
2022-12-11T19:25:50.067Z,22.57
2022-12-11T19:28:16.817Z,22.33
2022-12-11T19:30:45.819Z,22.18
2022-12-11T19:33:12.597Z,22.29
2022-12-11T19:35:39.793Z,22.08
2022-12-11T19:38:08.535Z,21.96
2022-12-11T19:40:43.303Z,21.23
2022-12-11T19:43:10.569Z,21.71
2022-12-11T19:45:37.716Z,21.27
2022-12-11T19:48:04.648Z,23.09
2022-12-11T19:50:31.318Z,22.11
2022-12-11T19:52:58.000Z,21.58
2022-12-11T19:55:24.698Z,23.00
2022-12-11T19:57:51.502Z,22.61
2022-12-11T20:00:18.721Z,22.14
2022-12-11T20:02:45.374Z,22.55
2022-12-11T20:05:12.519Z,22.31
2022-12-11T20:07:39.496Z,22.02
2022-12-11T20:10:06.726Z,22.23
2022-12-11T20:12:33.584Z,22.28
2022-12-11T20:15:00.403Z,21.85
2022-12-11T20:17:27.151Z,22.80
2022-12-11T20:19:54.036Z,22.46
2022-12-11T20:22:20.737Z,22.66
2022-12-11T20:24:47.571Z,23.24
2022-12-11T20:27:14.249Z,23.71
2022-12-11T20:29:40.881Z,23.77
2022-12-11T20:32:07.876Z,26.51
2022-12-11T20:34:34.735Z,25.68
2022-12-11T20:37:01.559Z,23.84
2022-12-11T20:39:28.379Z,24.44
2022-12-11T20:41:55.154Z,26.71
2022-12-11T20:44:21.795Z,27.01
2022-12-11T20:46:49.689Z,22.28
2022-12-11T20:49:19.366Z,22.24
2022-12-11T20:51:46.260Z,21.67
2022-12-11T20:54:12.987Z,21.69
2022-12-11T20:56:39.725Z,20.63
2022-12-11T20:59:06.445Z,20.89
2022-12-11T21:01:33.269Z,20.56
2022-12-11T21:04:00.850Z,20.95
2022-12-11T21:06:33.973Z,19.92
2022-12-11T21:09:06.683Z,20.72
2022-12-11T21:11:33.787Z,20.29
2022-12-11T21:14:00.486Z,20.14
2022-12-11T21:16:27.320Z,20.23
2022-12-11T21:18:55.644Z,19.97
2022-12-11T21:21:22.493Z,19.75
2022-12-11T21:23:49.190Z,19.82
2022-12-11T21:26:16.175Z,20.09
2022-12-11T21:28:43.044Z,19.46
2022-12-11T21:31:14.731Z,19.57
2022-12-11T21:33:41.456Z,19.84
2022-12-11T21:36:10.175Z,19.76
2022-12-11T21:38:37.608Z,20.20
2022-12-11T21:41:23.559Z,19.39
2022-12-11T21:44:56.483Z,19.66
2022-12-11T21:46:40.531Z,19.26
2022-12-11T21:49:07.524Z,19.94
2022-12-11T21:51:42.552Z,20.06
2022-12-11T21:54:14.990Z,19.22
2022-12-11T21:56:41.803Z,18.92
2022-12-11T21:59:08.494Z,19.48
2022-12-11T22:01:39.007Z,19.29
2022-12-11T22:04:05.695Z,18.95
2022-12-11T22:06:33.383Z,18.85
2022-12-11T22:09:00.568Z,18.86
2022-12-11T22:11:30.940Z,18.95
2022-12-11T22:13:58.256Z,18.83
2022-12-11T22:16:25.016Z,18.60
2022-12-11T22:18:51.910Z,18.09
2022-12-11T22:21:19.611Z,17.81
2022-12-11T22:23:46.885Z,17.39
2022-12-11T22:26:19.858Z,17.37
2022-12-11T22:28:46.727Z,17.38
2022-12-11T22:31:15.006Z,17.13
2022-12-11T22:33:41.816Z,16.99
2022-12-11T22:36:10.714Z,16.32
2022-12-11T22:38:37.993Z,16.44
2022-12-11T22:41:22.295Z,16.16
2022-12-11T22:43:49.706Z,16.66
2022-12-11T22:46:19.659Z,16.10
2022-12-11T22:48:46.542Z,16.22
2022-12-11T22:51:13.708Z,15.95
2022-12-11T22:53:40.374Z,16.18
2022-12-11T22:56:09.461Z,16.67
2022-12-11T22:58:36.797Z,16.42
2022-12-11T23:01:09.453Z,16.28
2022-12-11T23:03:36.778Z,15.84
2022-12-11T23:06:08.351Z,15.90
2022-12-11T23:08:35.956Z,15.96
2022-12-11T23:11:11.039Z,16.01
2022-12-11T23:13:37.792Z,15.84
2022-12-11T23:16:07.127Z,15.03
2022-12-11T23:18:33.868Z,15.57
2022-12-11T23:21:00.816Z,15.76
2022-12-11T23:23:27.412Z,15.74
2022-12-11T23:25:54.272Z,15.44
2022-12-11T23:28:20.976Z,16.27
2022-12-11T23:30:47.760Z,15.82
2022-12-11T23:33:14.652Z,16.45
2022-12-11T23:35:41.329Z,16.56
2022-12-11T23:38:08.036Z,16.15
2022-12-11T23:40:37.727Z,16.34
2022-12-11T23:43:04.336Z,16.40
2022-12-11T23:45:31.056Z,16.13
2022-12-11T23:47:57.678Z,16.33
2022-12-11T23:50:24.328Z,16.74
2022-12-11T23:52:50.947Z,16.67
2022-12-11T23:55:17.684Z,17.00
2022-12-11T23:57:44.278Z,16.75
